SBOSBO MXP / LIMC
Speedbird OnlineSpeedbird Online MXP / LIMC

Malpensa International Airport
21:10 13.2°C

Location Milano, Italy
Latitude: 45.6306
Longitude: 8.72811
Web Airport Website | Wikipedia
Altitude 234 Meter / 768 Feet
Distance 909 KM / 565 Miles
from London.
Time Zone UTC +2 hours (Europe/Rome)
Codes IATA: MXP
ICAO: LIMC
Currency £1 equals EUR 1.12
Runways
RunwayLength (m)Surface
17L3920Asphalt
17R3920Asphalt
35L3920Asphalt
35R3920Asphalt
Radio
TypeDescriptionFrequency
APPMILANO APP132.7
ATISATIS120.025
CLDCLNC DEL120.9
DEPMILANO DEP126.75
GNDGND121.9
TWRTWR119
Live ATC
METAR LIMC 241850Z 36006KT 5000 -RA BR BKN030 13/13 Q1015 NOSIG
TAF TAF LIMC 241700Z 2418/2524 02006KT 9999 BKN030 TEMPO 2418/2424 3000 RA BR TEMPO 2509/2514 4000 TSRA
Weather As Of 24 Sep 2022 21:10
Description Mist
Wind 11 km/h from North (360°)
Cloud Cover 75%
Precipitation Rain: none, Snow: none
Sunrise 07:14
Sunset 19:20
Lounges Monteverdi Lounge , Terminal 1
Sala Montale Lounge, Terminal 1
Rotations During the last 90 days there were
255 flights from LHR
85 flights from LCY
60 flights from LGW
256 flights to LHR
85 flights to LCY
63 flights to LGW
1 flights to LIN


© 2017-2022 Speedbird Online